Time;durP1;ratioP1;P1;durP2;ratioP2;P2;SDS_P1;SDS_P2;PMS_P1;PMS_P2;Temp;Humidity;BMP_temperature;BMP_pressure;BME280_temperature;BME280_humidity;BME280_pressure;Samples;Min_cycle;Max_cycle;Signal;HPM_P1;HPM_P2
2021/05/30 00:01:58;;;;;;;23.57;19.80;;;10.70;99.90;;;;;;5038943;28;20257;-64
2021/05/30 00:04:24;;;;;;;23.57;21.03;;;10.70;99.90;;;;;;5051587;28;20226;-65
2021/05/30 00:06:50;;;;;;;24.77;22.17;;;10.60;99.90;;;;;;5044929;28;20715;-66
2021/05/30 00:09:15;;;;;;;28.57;22.97;;;10.50;99.90;;;;;;5030310;28;20175;-66
2021/05/30 00:11:41;;;;;;;27.60;22.70;;;10.50;99.90;;;;;;5035392;28;20186;-66
2021/05/30 00:14:07;;;;;;;24.17;21.67;;;10.60;99.90;;;;;;5051349;28;20214;-66
2021/05/30 00:16:33;;;;;;;27.47;23.57;;;10.50;99.90;;;;;;5048354;28;20244;-65
2021/05/30 00:19:00;;;;;;;27.07;23.57;;;10.50;99.90;;;;;;5031761;28;20532;-66
2021/05/30 00:21:26;;;;;;;28.83;25.03;;;10.40;99.90;;;;;;5032420;28;20183;-66
2021/05/30 00:23:52;;;;;;;26.57;23.77;;;10.30;99.90;;;;;;5050935;28;20588;-66
2021/05/30 00:26:18;;;;;;;28.63;25.53;;;10.40;99.90;;;;;;5050990;28;20648;-66
2021/05/30 00:28:44;;;;;;;27.47;24.50;;;10.40;99.90;;;;;;5031519;28;20179;-66
2021/05/30 00:31:09;;;;;;;28.90;23.80;;;10.40;99.90;;;;;;5031129;28;20259;-65
2021/05/30 00:33:35;;;;;;;27.37;24.50;;;10.30;99.90;;;;;;5048974;28;20234;-65
2021/05/30 00:36:00;;;;;;;27.87;25.07;;;10.30;99.90;;;;;;5051275;28;20182;-65
2021/05/30 00:38:26;;;;;;;28.97;24.63;;;10.30;99.90;;;;;;5034835;28;20180;-66
2021/05/30 00:40:53;;;;;;;27.43;24.37;;;10.30;99.90;;;;;;5030851;28;20215;-66
2021/05/30 00:43:18;;;;;;;28.73;25.17;;;10.20;99.90;;;;;;5045608;28;20199;-65
2021/05/30 00:45:46;;;;;;;26.43;23.57;;;10.20;99.90;;;;;;5051082;28;20221;-65
2021/05/30 00:48:12;;;;;;;25.80;23.17;;;10.10;99.90;;;;;;5037923;28;20640;-64
2021/05/30 00:50:37;;;;;;;27.63;24.50;;;10.10;99.90;;;;;;5030856;28;20233;-65
2021/05/30 00:53:03;;;;;;;31.07;25.77;;;10.00;99.90;;;;;;5042432;28;20198;-65
2021/05/30 00:55:29;;;;;;;31.60;27.80;;;10.00;99.90;;;;;;5051044;28;20704;-65
2021/05/30 00:57:55;;;;;;;30.43;27.40;;;10.00;99.90;;;;;;5047282;28;20183;-65
2021/05/30 01:00:21;;;;;;;31.00;27.70;;;10.00;99.90;;;;;;5049488;28;20228;-65
2021/05/30 01:02:47;;;;;;;30.33;27.13;;;10.00;99.90;;;;;;5042778;28;20179;-65
2021/05/30 01:05:13;;;;;;;34.07;26.87;;;10.00;99.90;;;;;;5031056;28;20583;-65
2021/05/30 01:07:41;;;;;;;31.03;26.80;;;9.90;99.90;;;;;;5037682;28;20175;-65
2021/05/30 01:10:32;;;;;;;32.17;27.10;;;9.80;99.90;;;;;;5054241;28;20166;-66
2021/05/30 01:12:59;;;;;;;32.93;27.67;;;9.70;99.90;;;;;;5040318;28;20211;-65
2021/05/30 01:15:27;;;;;;;28.67;25.37;;;9.70;99.90;;;;;;5034543;28;20203;-66
2021/05/30 01:17:54;;;;;;;29.83;24.73;;;9.70;99.90;;;;;;5035391;28;20222;-65
2021/05/30 01:20:22;;;;;;;27.47;24.33;;;9.70;99.90;;;;;;5034229;28;20254;-65
2021/05/30 01:22:48;;;;;;;27.03;24.10;;;9.70;99.90;;;;;;5052081;28;20171;-65
2021/05/30 01:25:17;;;;;;;24.10;21.63;;;9.60;99.90;;;;;;5054379;28;20175;-65
2021/05/30 01:27:44;;;;;;;25.13;22.37;;;9.70;99.90;;;;;;5037368;28;20179;-66
2021/05/30 01:30:11;;;;;;;28.13;23.37;;;9.50;99.90;;;;;;5034049;28;20259;-65
2021/05/30 01:32:37;;;;;;;25.43;22.73;;;9.60;99.90;;;;;;5035243;28;20195;-65
2021/05/30 01:35:04;;;;;;;24.90;22.27;;;9.50;99.90;;;;;;5034238;28;20560;-65
2021/05/30 01:37:29;;;;;;;27.60;24.60;;;9.50;99.90;;;;;;5047292;28;20179;-65
2021/05/30 01:39:55;;;;;;;24.73;22.13;;;9.40;99.90;;;;;;5053437;28;20171;-66
2021/05/30 01:42:21;;;;;;;24.63;21.90;;;9.20;99.90;;;;;;5041629;28;20290;-65
2021/05/30 01:44:46;;;;;;;24.37;21.87;;;9.10;99.90;;;;;;5033907;28;20203;-65
2021/05/30 01:47:12;;;;;;;29.63;24.03;;;9.10;99.90;;;;;;5034126;28;20184;-65
2021/05/30 01:49:38;;;;;;;32.87;24.47;;;8.90;99.90;;;;;;5033832;28;20171;-65
2021/05/30 01:52:04;;;;;;;28.57;24.40;;;8.80;99.90;;;;;;5051000;28;20185;-65
2021/05/30 01:54:30;;;;;;;31.10;25.80;;;8.70;99.90;;;;;;5053734;28;20252;-66
2021/05/30 01:56:58;;;;;;;31.97;25.37;;;8.70;99.90;;;;;;5037520;28;20183;-65
2021/05/30 01:59:25;;;;;;;32.03;26.47;;;8.70;99.90;;;;;;5034120;28;20163;-65
2021/05/30 02:01:53;;;;;;;42.77;29.80;;;8.60;99.90;;;;;;5047969;28;20171;-65
2021/05/30 02:04:22;;;;;;;31.67;27.30;;;8.60;99.90;;;;;;5053595;28;20202;-65
2021/05/30 02:06:49;;;;;;;33.57;28.33;;;8.70;99.90;;;;;;5038555;28;20273;-65
2021/05/30 02:09:16;;;;;;;33.50;28.33;;;8.70;99.90;;;;;;5048881;28;20313;-65
2021/05/30 02:11:42;;;;;;;34.70;29.97;;;8.80;99.90;;;;;;5044953;28;20656;-65
2021/05/30 02:14:09;;;;;;;36.73;28.03;;;8.80;99.90;;;;;;5051869;28;20214;-66
2021/05/30 02:16:37;;;;;;;35.60;30.00;;;8.80;99.90;;;;;;5051695;28;20174;-65
2021/05/30 02:19:03;;;;;;;39.30;29.87;;;8.90;99.90;;;;;;5052576;28;20167;-64
2021/05/30 02:21:42;;;;;;;40.03;31.03;;;8.80;99.90;;;;;;5043678;28;20306;-66
2021/05/30 02:24:09;;;;;;;35.30;29.07;;;8.90;99.90;;;;;;5033870;28;20563;-64
2021/05/30 02:26:35;;;;;;;35.70;28.90;;;8.90;99.90;;;;;;5042417;28;20202;-65
2021/05/30 02:29:01;;;;;;;38.17;31.30;;;8.80;99.90;;;;;;5051947;28;20179;-66
2021/05/30 02:31:27;;;;;;;40.90;33.83;;;8.70;99.90;;;;;;5045427;28;20194;-66
2021/05/30 02:33:52;;;;;;;39.57;32.73;;;8.60;99.90;;;;;;5033038;28;20214;-64
2021/05/30 02:36:18;;;;;;;37.90;33.33;;;8.70;99.90;;;;;;5037110;28;20175;-64
2021/05/30 02:38:44;;;;;;;40.67;36.67;;;8.80;99.90;;;;;;5033056;28;20175;-64
2021/05/30 02:41:09;;;;;;;41.70;31.70;;;8.70;99.90;;;;;;5040862;28;20185;-64
2021/05/30 02:43:35;;;;;;;36.70;30.07;;;8.80;99.90;;;;;;5052730;28;20202;-66
2021/05/30 02:46:02;;;;;;;44.23;31.90;;;8.70;99.90;;;;;;5046107;28;20196;-65
2021/05/30 02:48:27;;;;;;;40.90;32.60;;;8.70;99.90;;;;;;5031609;28;20180;-65
2021/05/30 02:51:00;;;;;;;44.93;33.20;;;8.70;99.90;;;;;;5042078;28;20190;-66
2021/05/30 02:53:27;;;;;;;42.27;33.30;;;8.70;99.90;;;;;;5052520;28;20195;-65
2021/05/30 02:55:54;;;;;;;44.37;34.37;;;8.70;99.90;;;;;;5043157;28;20629;-66
2021/05/30 02:58:20;;;;;;;41.97;34.47;;;8.60;99.90;;;;;;5032680;28;20179;-65
2021/05/30 03:00:46;;;;;;;40.90;31.90;;;8.60;99.90;;;;;;5039742;28;20244;-66
2021/05/30 03:03:12;;;;;;;44.60;33.77;;;8.60;99.90;;;;;;5052393;28;20270;-65
2021/05/30 03:05:37;;;;;;;42.67;34.17;;;8.50;99.90;;;;;;5046444;28;20273;-64
2021/05/30 03:08:03;;;;;;;42.60;33.20;;;8.50;99.90;;;;;;5032232;28;20175;-65
2021/05/30 03:10:29;;;;;;;42.33;33.97;;;8.50;99.90;;;;;;5035791;28;20195;-65
2021/05/30 03:12:54;;;;;;;41.50;33.37;;;8.60;99.90;;;;;;5052119;28;20171;-65
2021/05/30 03:15:20;;;;;;;41.23;32.20;;;8.50;99.90;;;;;;5050001;28;20217;-64
2021/05/30 03:17:46;;;;;;;41.53;31.80;;;8.60;99.90;;;;;;5032189;28;20184;-66
2021/05/30 03:20:12;;;;;;;38.23;29.23;;;8.50;99.90;;;;;;5031778;28;20634;-66
2021/05/30 03:22:38;;;;;;;39.87;30.13;;;8.50;99.90;;;;;;5012231;28;20173;-64
2021/05/30 03:25:04;;;;;;;43.87;29.63;;;8.40;99.90;;;;;;5012455;28;20184;-64
2021/05/30 03:27:30;;;;;;;34.67;29.13;;;8.40;99.90;;;;;;5049333;28;20636;-65
2021/05/30 03:29:57;;;;;;;40.30;30.47;;;8.40;99.90;;;;;;5051447;28;20228;-65
2021/05/30 03:32:23;;;;;;;41.77;31.47;;;8.30;99.90;;;;;;5034694;28;20270;-66
2021/05/30 03:34:48;;;;;;;43.43;31.57;;;8.30;99.90;;;;;;5031835;28;20293;-66
2021/05/30 03:37:14;;;;;;;42.33;32.20;;;8.30;99.90;;;;;;5046701;28;20746;-65
2021/05/30 03:39:42;;;;;;;44.77;32.33;;;8.40;99.90;;;;;;5051847;28;20167;-65
2021/05/30 03:42:13;;;;;;;45.50;33.20;;;8.40;99.90;;;;;;5038008;28;20192;-65
2021/05/30 03:44:39;;;;;;;40.37;32.40;;;8.30;99.90;;;;;;5036038;28;20697;-64
2021/05/30 03:47:05;;;;;;;43.10;33.17;;;8.30;99.90;;;;;;5051727;28;20175;-65
2021/05/30 03:49:30;;;;;;;44.70;33.20;;;8.30;99.90;;;;;;5048966;28;20186;-65
2021/05/30 03:51:56;;;;;;;47.03;33.53;;;8.40;99.90;;;;;;5031299;28;20601;-65
2021/05/30 03:54:21;;;;;;;39.70;32.53;;;8.30;99.90;;;;;;5032067;28;20218;-65
2021/05/30 03:56:48;;;;;;;42.53;32.17;;;8.40;99.90;;;;;;5051505;28;20171;-66
2021/05/30 03:59:13;;;;;;;41.23;31.93;;;8.50;99.90;;;;;;5051650;28;20211;-66
2021/05/30 04:01:39;;;;;;;39.73;31.20;;;8.60;99.90;;;;;;5032208;28;20214;-66
2021/05/30 04:04:05;;;;;;;35.63;29.23;;;8.70;99.90;;;;;;5046420;28;20233;-66
2021/05/30 04:06:31;;;;;;;34.30;28.67;;;8.90;99.90;;;;;;5051567;28;20179;-65
2021/05/30 04:08:56;;;;;;;32.77;28.47;;;9.10;99.90;;;;;;5036665;28;20485;-65
2021/05/30 04:11:22;;;;;;;34.43;26.50;;;9.20;99.90;;;;;;5031456;28;20668;-66
2021/05/30 04:13:48;;;;;;;29.37;26.27;;;9.50;99.90;;;;;;5042703;28;20719;-65
2021/05/30 04:16:13;;;;;;;28.17;25.17;;;9.70;99.90;;;;;;5051299;28;20183;-66
2021/05/30 04:18:39;;;;;;;27.87;24.57;;;9.80;99.90;;;;;;5041447;28;20272;-66
2021/05/30 04:21:05;;;;;;;25.13;21.77;;;10.20;99.90;;;;;;5031224;28;20171;-65
2021/05/30 04:23:31;;;;;;;25.47;21.93;;;10.40;99.90;;;;;;5039717;28;20210;-67
2021/05/30 04:25:58;;;;;;;22.10;19.80;;;10.60;99.90;;;;;;5051533;28;20317;-67
2021/05/30 04:28:24;;;;;;;21.43;19.23;;;10.80;99.90;;;;;;5045235;28;20179;-67
2021/05/30 04:30:50;;;;;;;22.40;20.00;;;11.00;99.90;;;;;;5031295;28;20172;-65
2021/05/30 04:33:16;;;;;;;18.90;16.90;;;11.30;99.90;;;;;;5036018;28;20273;-66
2021/05/30 04:35:42;;;;;;;19.17;17.03;;;11.50;99.90;;;;;;5051330;28;20198;-67
2021/05/30 04:38:07;;;;;;;20.37;16.60;;;11.70;99.90;;;;;;5048520;28;20185;-67
2021/05/30 04:40:33;;;;;;;20.00;18.10;;;11.90;99.90;;;;;;5031147;28;20238;-67
2021/05/30 04:42:59;;;;;;;18.60;16.63;;;12.10;99.90;;;;;;5032802;28;20195;-67
2021/05/30 04:45:24;;;;;;;19.00;17.00;;;12.40;99.90;;;;;;5055304;28;20245;-66
2021/05/30 04:47:50;;;;;;;18.77;16.97;;;12.60;99.90;;;;;;5055005;28;20231;-67
2021/05/30 04:50:16;;;;;;;20.33;18.43;;;12.90;99.90;;;;;;5035514;28;20680;-67
2021/05/30 04:52:42;;;;;;;21.80;19.53;;;13.10;99.90;;;;;;5034910;28;20175;-67
2021/05/30 04:55:11;;;;;;;20.00;17.93;;;13.40;99.90;;;;;;5051927;28;20221;-67
2021/05/30 04:57:37;;;;;;;21.17;19.10;;;13.60;99.90;;;;;;5054902;28;20179;-67
2021/05/30 05:00:05;;;;;;;22.73;20.60;;;13.90;99.90;;;;;;5038497;28;20211;-66
2021/05/30 05:02:31;;;;;;;21.67;19.57;;;13.90;99.90;;;;;;5034766;28;20245;-66
2021/05/30 05:04:57;;;;;;;24.20;21.67;;;13.70;99.90;;;;;;5048608;28;20735;-66
2021/05/30 05:07:22;;;;;;;24.00;21.53;;;13.80;99.90;;;;;;5038747;28;20187;-67
2021/05/30 05:09:48;;;;;;;23.03;20.83;;;13.80;99.90;;;;;;5046528;28;20193;-67
2021/05/30 05:12:14;;;;;;;22.13;20.13;;;14.10;99.90;;;;;;5054407;28;20663;-67
2021/05/30 05:14:39;;;;;;;22.17;20.13;;;14.40;99.90;;;;;;5043673;28;20230;-66
2021/05/30 05:17:05;;;;;;;21.10;19.10;;;14.60;99.90;;;;;;5034776;28;20523;-67
2021/05/30 05:19:30;;;;;;;22.07;19.97;;;15.00;99.90;;;;;;5042912;28;20544;-67
2021/05/30 05:21:56;;;;;;;21.53;19.33;;;15.00;99.90;;;;;;5053920;28;20606;-67
2021/05/30 05:24:22;;;;;;;20.53;18.73;;;15.00;99.90;;;;;;5047230;28;20217;-66
2021/05/30 05:26:48;;;;;;;22.00;19.67;;;15.30;99.90;;;;;;5034367;28;20258;-66
2021/05/30 05:29:13;;;;;;;20.83;18.93;;;15.50;99.90;;;;;;5039026;28;20178;-65
2021/05/30 05:31:40;;;;;;;20.40;18.50;;;15.60;99.90;;;;;;5053981;28;20680;-67
2021/05/30 05:34:05;;;;;;;20.50;18.77;;;16.00;99.90;;;;;;5050711;28;20296;-67
2021/05/30 05:36:31;;;;;;;20.60;18.57;;;16.20;99.90;;;;;;5034323;28;20455;-67
2021/05/30 05:38:56;;;;;;;20.30;18.43;;;16.50;99.90;;;;;;5035005;28;20237;-66
2021/05/30 05:41:22;;;;;;;18.87;17.27;;;16.50;99.90;;;;;;5053832;28;20206;-66
2021/05/30 05:43:48;;;;;;;18.40;16.67;;;16.70;99.90;;;;;;5046334;28;20290;-67
2021/05/30 05:46:13;;;;;;;19.20;17.53;;;16.90;99.90;;;;;;5033988;28;20184;-66
2021/05/30 05:48:39;;;;;;;19.47;17.67;;;17.10;99.90;;;;;;5039360;28;20510;-67
2021/05/30 05:51:05;;;;;;;19.27;17.37;;;17.10;99.90;;;;;;5053606;28;20178;-68
2021/05/30 05:53:31;;;;;;;19.63;17.80;;;17.10;99.90;;;;;;5049745;28;20203;-67
2021/05/30 05:55:56;;;;;;;18.77;17.07;;;17.00;99.90;;;;;;5033738;28;20187;-66
2021/05/30 05:58:22;;;;;;;21.77;18.40;;;16.70;99.90;;;;;;5035399;28;20168;-67
2021/05/30 06:00:48;;;;;;;21.37;18.07;;;16.90;99.90;;;;;;5053360;28;20182;-68
2021/05/30 06:03:13;;;;;;;19.67;17.83;;;16.90;99.90;;;;;;5051961;28;20206;-67
2021/05/30 06:05:39;;;;;;;19.50;17.70;;;17.10;99.90;;;;;;5031872;28;20214;-66
2021/05/30 06:08:05;;;;;;;19.77;17.83;;;17.40;99.90;;;;;;5033382;28;20187;-66
2021/05/30 06:10:31;;;;;;;20.20;18.30;;;17.40;99.90;;;;;;5051054;28;20189;-66
2021/05/30 06:12:59;;;;;;;19.37;17.43;;;17.20;99.90;;;;;;5053027;28;20194;-67
2021/05/30 06:15:26;;;;;;;18.90;17.10;;;17.30;99.90;;;;;;5036422;28;20243;-67
2021/05/30 06:17:57;;;;;;;17.83;16.13;;;17.60;99.90;;;;;;5033125;28;20211;-67
2021/05/30 06:20:25;;;;;;;18.87;17.03;;;17.70;99.90;;;;;;5034242;28;20271;-66
2021/05/30 06:22:51;;;;;;;18.20;16.60;;;17.90;99.90;;;;;;5032965;28;20171;-67
2021/05/30 06:25:18;;;;;;;19.17;17.57;;;18.20;99.90;;;;;;5047250;28;20260;-67
2021/05/30 06:27:43;;;;;;;18.63;17.02;;;18.70;99.90;;;;;;5052841;28;20628;-67
2021/05/30 06:30:10;;;;;;;18.27;16.57;;;19.00;99.90;;;;;;5050942;28;20191;-66
2021/05/30 06:32:35;;;;;;;18.98;17.48;;;19.40;99.90;;;;;;5052777;28;20186;-67
2021/05/30 06:35:02;;;;;;;18.75;17.10;;;19.70;99.90;;;;;;5041902;28;20210;-66
2021/05/30 06:37:28;;;;;;;19.05;17.45;;;20.00;99.90;;;;;;5032934;28;20167;-67
2021/05/30 06:39:54;;;;;;;17.80;16.08;;;19.70;99.90;;;;;;5033519;28;20241;-68
2021/05/30 06:42:19;;;;;;;19.48;17.77;;;19.70;99.90;;;;;;5031568;28;20171;-67
2021/05/30 06:44:45;;;;;;;17.23;15.73;;;19.90;99.90;;;;;;5040043;28;20203;-68
2021/05/30 06:47:11;;;;;;;16.80;15.32;;;20.10;99.90;;;;;;5052640;28;20657;-67
2021/05/30 06:49:36;;;;;;;15.65;14.07;;;20.50;99.90;;;;;;5046223;28;20317;-68
2021/05/30 06:52:02;;;;;;;15.07;13.80;;;20.50;99.90;;;;;;5032174;28;20176;-67
2021/05/30 06:54:28;;;;;;;16.00;14.60;;;20.50;99.90;;;;;;5036533;28;20217;-68
2021/05/30 06:56:53;;;;;;;16.30;14.70;;;20.40;99.90;;;;;;5052350;28;20183;-68
2021/05/30 06:59:19;;;;;;;15.35;14.05;;;20.00;99.90;;;;;;5049698;28;20198;-68
2021/05/30 07:01:45;;;;;;;15.48;14.13;;;20.20;99.90;;;;;;5032058;28;20218;-68
2021/05/30 07:04:10;;;;;;;15.35;13.90;;;20.40;99.90;;;;;;5032921;28;20227;-67
2021/05/30 07:06:36;;;;;;;14.10;12.80;;;20.20;99.90;;;;;;5051691;28;20596;-66
2021/05/30 07:09:05;;;;;;;14.35;13.00;;;20.30;99.90;;;;;;5052287;28;20269;-68
2021/05/30 07:11:31;;;;;;;14.70;13.30;;;20.60;99.90;;;;;;5032221;28;20183;-67
2021/05/30 07:13:57;;;;;;;13.55;12.15;;;21.00;99.90;;;;;;5031965;28;20258;-65
2021/05/30 07:16:23;;;;;;;13.40;12.27;;;21.00;99.90;;;;;;5049861;28;20244;-64
2021/05/30 07:18:48;;;;;;;14.10;12.70;;;20.90;99.90;;;;;;5051821;28;20167;-64
2021/05/30 07:21:14;;;;;;;12.30;11.10;;;21.00;99.90;;;;;;5035436;28;20183;-65
2021/05/30 07:23:40;;;;;;;12.35;11.27;;;21.40;99.90;;;;;;5031781;28;20207;-65
2021/05/30 07:26:05;;;;;;;12.98;11.98;;;21.70;99.90;;;;;;5046062;28;20269;-65
2021/05/30 07:28:31;;;;;;;13.25;12.05;;;21.80;99.90;;;;;;5051175;28;20178;-66
2021/05/30 07:30:57;;;;;;;13.40;12.32;;;22.10;99.90;;;;;;5031519;28;20645;-66
2021/05/30 07:33:23;;;;;;;12.82;11.73;;;22.10;99.90;;;;;;5031751;28;20202;-64
2021/05/30 07:35:48;;;;;;;13.82;12.43;;;22.00;99.90;;;;;;5043437;28;20183;-66
2021/05/30 07:38:15;;;;;;;13.02;11.73;;;21.50;99.90;;;;;;5031950;28;20637;-66
2021/05/30 07:40:41;;;;;;;12.25;11.25;;;21.60;99.90;;;;;;5030374;28;20481;-66
2021/05/30 07:43:07;;;;;;;13.52;12.20;;;21.60;99.90;;;;;;5031685;28;20191;-65
2021/05/30 07:45:33;;;;;;;12.68;11.63;;;21.60;99.90;;;;;;5031522;28;20637;-66
2021/05/30 07:47:59;;;;;;;12.10;11.00;;;21.70;99.90;;;;;;5031581;28;20232;-66
2021/05/30 07:50:25;;;;;;;13.15;12.15;;;22.00;99.90;;;;;;5031476;28;20171;-66
2021/05/30 07:52:50;;;;;;;11.52;10.55;;;22.10;99.90;;;;;;5031396;28;20218;-67
2021/05/30 07:55:17;;;;;;;11.85;10.75;;;22.40;99.90;;;;;;5032537;28;20290;-66
2021/05/30 07:57:44;;;;;;;12.85;11.75;;;22.90;99.90;;;;;;5046869;28;20648;-66
2021/05/30 08:00:12;;;;;;;11.63;10.57;;;22.90;99.90;;;;;;5041573;28;20171;-66
2021/05/30 08:02:38;;;;;;;11.77;10.80;;;23.20;99.90;;;;;;5051167;28;20171;-66
2021/05/30 08:05:06;;;;;;;15.23;12.65;;;23.60;99.90;;;;;;5049880;28;20197;-66
2021/05/30 08:07:32;;;;;;;12.30;11.32;;;23.70;99.90;;;;;;5051353;28;20175;-65
2021/05/30 08:09:57;;;;;;;11.60;10.70;;;23.70;99.90;;;;;;5043447;28;20187;-65
2021/05/30 08:12:23;;;;;;;11.48;10.48;;;23.90;99.90;;;;;;5031304;28;20186;-66
2021/05/30 08:14:49;;;;;;;10.43;9.60;;;24.40;99.90;;;;;;5036720;28;20672;-66
2021/05/30 08:17:15;;;;;;;11.63;10.70;;;24.40;99.90;;;;;;5051357;28;20174;-66
2021/05/30 08:19:41;;;;;;;12.48;11.25;;;24.60;99.90;;;;;;5050922;28;20172;-66
2021/05/30 08:22:08;;;;;;;12.23;11.23;;;25.00;99.90;;;;;;5035195;28;20652;-66
2021/05/30 08:24:33;;;;;;;11.40;10.40;;;25.30;99.90;;;;;;5037460;28;20219;-66
2021/05/30 08:26:59;;;;;;;11.50;10.63;;;25.30;99.90;;;;;;5055270;28;20178;-66
2021/05/30 08:29:25;;;;;;;10.68;9.77;;;25.50;99.90;;;;;;5054139;28;20269;-65
2021/05/30 08:31:52;;;;;;;10.23;9.43;;;25.50;99.90;;;;;;5034826;28;20245;-66
2021/05/30 08:34:19;;;;;;;10.38;9.52;;;25.30;99.90;;;;;;5034956;28;20206;-66
2021/05/30 08:36:45;;;;;;;9.63;8.82;;;25.10;99.90;;;;;;5035153;28;20179;-65
2021/05/30 08:39:11;;;;;;;8.52;7.82;;;25.20;99.90;;;;;;5035165;28;20171;-66
2021/05/30 08:41:38;;;;;;;10.35;9.55;;;25.50;99.90;;;;;;5052420;28;20179;-66
2021/05/30 08:44:03;;;;;;;9.25;8.55;;;25.60;99.90;;;;;;5053979;28;20217;-66
2021/05/30 08:46:30;;;;;;;9.10;8.40;;;26.10;99.90;;;;;;5037706;28;20303;-65
2021/05/30 08:48:56;;;;;;;9.43;8.75;;;26.20;99.90;;;;;;5034846;28;20273;-66
2021/05/30 08:51:23;;;;;;;8.80;8.15;;;25.90;99.90;;;;;;5049920;28;20175;-66
2021/05/30 08:53:49;;;;;;;11.88;11.07;;;26.00;99.90;;;;;;5045597;28;20583;-66
2021/05/30 08:56:17;;;;;;;8.50;7.90;;;25.70;99.90;;;;;;5034667;28;20168;-65
2021/05/30 08:58:45;;;;;;;8.55;7.95;;;25.70;99.90;;;;;;5041670;28;20205;-66
2021/05/30 09:01:25;;;;;;;8.23;7.55;;;26.30;99.90;;;;;;5052617;28;20718;-67
2021/05/30 09:04:07;;;;;;;9.20;8.50;;;26.50;99.90;;;;;;5054480;28;20222;-66
2021/05/30 09:06:38;;;;;;;10.68;9.77;;;26.60;99.90;;;;;;5045728;28;20171;-66
2021/05/30 09:09:08;;;;;;;9.88;9.15;;;26.50;99.90;;;;;;5034602;28;20218;-65
2021/05/30 09:11:50;;;;;;;8.45;7.80;;;26.60;99.90;;;;;;5042500;28;20233;-67
2021/05/30 09:14:19;;;;;;;9.52;8.77;;;26.70;99.90;;;;;;5054375;28;20695;-67
2021/05/30 09:16:47;;;;;;;10.82;9.93;;;26.50;99.90;;;;;;5044766;28;20211;-67
2021/05/30 09:19:31;;;;;;;10.25;9.35;;;26.60;99.90;;;;;;5034773;28;20633;-67
2021/05/30 09:22:15;;;;;;;8.73;8.02;;;26.30;99.90;;;;;;5044328;28;20206;-67
2021/05/30 09:25:06;;;;;;;6.72;6.32;;;26.60;99.90;;;;;;5054889;28;20293;-67
2021/05/30 09:27:53;;;;;;;9.00;8.40;;;27.10;99.70;;;;;;5040075;28;20640;-64
2021/05/30 09:30:32;;;;;;;9.07;8.40;;;27.60;96.70;;;;;;5033335;28;20619;-67
2021/05/30 09:33:07;;;;;;;7.97;7.30;;;27.00;99.50;;;;;;5052166;28;20296;-67
2021/05/30 09:35:45;;;;;;;8.73;7.97;;;26.70;97.50;;;;;;5054042;28;20198;-66
2021/05/30 09:38:26;;;;;;;9.07;8.43;;;26.50;95.70;;;;;;5034642;28;20176;-66
2021/05/30 09:40:55;;;;;;;8.68;8.10;;;26.70;97.10;;;;;;5045535;28;20257;-66
2021/05/30 09:43:34;;;;;;;8.02;7.43;;;27.20;96.70;;;;;;5053882;28;20613;-66
2021/05/30 09:46:09;;;;;;;7.30;6.57;;;27.60;96.50;;;;;;5037999;28;20196;-67
2021/05/30 09:48:38;;;;;;;7.22;6.72;;;27.60;93.60;;;;;;5033848;28;20183;-66
2021/05/30 09:51:25;;;;;;;9.20;8.60;;;27.20;94.50;;;;;;5047541;28;20179;-67
2021/05/30 09:53:56;;;;;;;9.00;8.48;;;26.80;92.90;;;;;;5053497;28;20209;-67
2021/05/30 09:56:36;;;;;;;7.72;7.22;;;27.00;96.80;;;;;;5037380;28;20538;-67
2021/05/30 09:59:05;;;;;;;8.18;7.68;;;27.10;94.40;;;;;;5033699;28;20179;-66
2021/05/30 10:01:55;;;;;;;10.85;10.25;;;26.80;92.40;;;;;;5041743;28;20739;-67
2021/05/30 10:04:23;;;;;;;9.45;8.85;;;26.90;93.40;;;;;;5033430;28;20614;-66
2021/05/30 10:06:49;;;;;;;6.22;5.72;;;26.70;94.10;;;;;;5051672;28;20179;-67
2021/05/30 10:09:15;;;;;;;6.03;5.63;;;26.20;92.20;;;;;;5053421;28;20175;-66
2021/05/30 10:11:41;;;;;;;8.00;7.28;;;26.00;92.70;;;;;;5035756;28;20344;-67
2021/05/30 10:14:08;;;;;;;6.97;6.47;;;26.10;94.80;;;;;;5033353;28;20203;-66
2021/05/30 10:16:35;;;;;;;8.05;7.55;;;26.40;94.20;;;;;;5048639;28;20179;-67
2021/05/30 10:19:12;;;;;;;8.07;7.57;;;26.60;92.40;;;;;;5053349;28;20198;-67
2021/05/30 10:21:45;;;;;;;7.50;7.00;;;26.70;92.00;;;;;;5050837;28;20217;-67
2021/05/30 10:24:12;;;;;;;7.65;7.25;;;27.20;93.80;;;;;;5053436;28;20225;-66
2021/05/30 10:26:38;;;;;;;8.13;7.43;;;27.50;91.60;;;;;;5037720;28;20301;-66
2021/05/30 10:29:14;;;;;;;6.40;5.88;;;27.70;91.60;;;;;;5032991;28;20172;-66
2021/05/30 10:31:42;;;;;;;7.65;7.15;;;27.80;92.90;;;;;;5047088;28;20261;-66
2021/05/30 10:34:10;;;;;;;7.95;7.35;;;28.10;94.20;;;;;;5052842;28;20819;-65
2021/05/30 10:37:16;;;;;;;10.68;10.07;;;28.40;92.40;;;;;;5039008;28;20211;-66
2021/05/30 10:39:42;;;;;;;6.72;6.28;;;28.30;92.90;;;;;;5032185;28;20719;-66
2021/05/30 10:42:15;;;;;;;6.60;5.97;;;28.60;91.00;;;;;;5049121;28;20183;-66
2021/05/30 10:44:57;;;;;;;8.90;8.32;;;29.00;91.70;;;;;;5052522;28;20194;-66
2021/05/30 10:47:41;;;;;;;7.00;6.60;;;28.40;88.10;;;;;;5033640;28;20183;-66
2021/05/30 10:50:11;;;;;;;7.20;6.50;;;28.20;93.20;;;;;;5032420;28;20704;-64
2021/05/30 10:52:39;;;;;;;8.00;7.35;;;28.10;89.90;;;;;;5011602;28;20176;-66
2021/05/30 10:55:20;;;;;;;6.15;5.72;;;28.20;90.50;;;;;;5012720;28;20215;-65
2021/05/30 10:57:48;;;;;;;8.88;8.07;;;28.50;87.50;;;;;;5012869;28;20172;-66
2021/05/30 11:00:19;;;;;;;7.28;6.78;;;28.70;91.20;;;;;;5012507;28;20204;-66
2021/05/30 11:03:06;;;;;;;6.90;6.43;;;29.50;92.70;;;;;;5014373;28;20176;-66
2021/05/30 11:05:51;;;;;;;7.55;6.05;;;30.40;85.00;;;;;;5050946;28;20178;-67
2021/05/30 11:08:29;;;;;;;9.13;8.27;;;30.80;85.10;;;;;;5032242;28;20202;-65
2021/05/30 11:11:22;;;;;;;8.27;7.75;;;29.50;83.40;;;;;;5035842;28;20567;-65
2021/05/30 11:14:07;;;;;;;6.13;5.72;;;28.80;83.30;;;;;;5052232;28;20640;-65
2021/05/30 11:16:33;;;;;;;7.93;7.18;;;28.90;85.20;;;;;;5046868;28;20269;-66
2021/05/30 11:19:01;;;;;;;7.25;6.80;;;29.10;85.00;;;;;;5046524;28;20182;-65
2021/05/30 11:21:47;;;;;;;6.60;6.20;;;29.70;86.20;;;;;;5047946;28;20597;-66
2021/05/30 11:24:15;;;;;;;6.95;6.53;;;30.70;82.50;;;;;;5031849;28;20214;-66
2021/05/30 11:26:58;;;;;;;6.85;6.35;;;31.10;82.70;;;;;;5031980;28;20202;-65
2021/05/30 11:29:25;;;;;;;6.53;6.03;;;31.20;81.30;;;;;;5032889;28;20540;-66
2021/05/30 11:31:51;;;;;;;5.97;5.57;;;31.40;79.90;;;;;;5031482;28;20167;-66
2021/05/30 11:34:18;;;;;;;8.30;7.70;;;31.60;81.80;;;;;;5036296;28;20549;-67
2021/05/30 11:36:44;;;;;;;7.97;7.38;;;31.40;75.10;;;;;;5050442;28;20175;-66
2021/05/30 11:39:12;;;;;;;7.68;6.93;;;31.10;79.70;;;;;;5046939;28;20229;-66
2021/05/30 11:41:51;;;;;;;6.68;6.18;;;30.70;73.90;;;;;;5042728;28;20224;-66
2021/05/30 11:44:19;;;;;;;6.68;6.05;;;30.90;80.10;;;;;;5031472;28;20214;-67
2021/05/30 11:47:00;;;;;;;6.38;6.05;;;31.10;77.30;;;;;;5031572;28;20213;-66
2021/05/30 11:49:28;;;;;;;7.97;7.47;;;31.10;77.90;;;;;;5037131;28;20187;-66
2021/05/30 11:52:00;;;;;;;8.18;7.68;;;31.20;80.20;;;;;;5036085;28;20187;-65
2021/05/30 11:54:35;;;;;;;6.55;6.15;;;31.90;73.90;;;;;;5039904;28;20206;-65
2021/05/30 11:57:03;;;;;;;8.00;7.35;;;32.50;79.10;;;;;;5034529;28;20572;-65
2021/05/30 11:59:44;;;;;;;8.13;7.43;;;32.40;76.80;;;;;;5043767;28;20166;-66
2021/05/30 12:02:12;;;;;;;8.13;7.57;;;32.10;74.60;;;;;;5031492;28;20172;-66
2021/05/30 12:04:41;;;;;;;6.68;6.20;;;31.70;70.50;;;;;;5039760;28;20203;-66
2021/05/30 12:07:12;;;;;;;6.90;6.28;;;32.10;68.50;;;;;;5051628;28;20201;-66
2021/05/30 12:09:47;;;;;;;6.20;5.80;;;32.30;70.80;;;;;;5037544;28;20182;-66
2021/05/30 12:12:25;;;;;;;7.25;6.85;;;32.00;74.30;;;;;;5031645;28;20262;-67
2021/05/30 12:14:51;;;;;;;7.82;7.40;;;32.40;74.40;;;;;;5041309;28;20215;-66
2021/05/30 12:17:17;;;;;;;8.70;8.20;;;32.50;70.00;;;;;;5049916;28;20221;-66
2021/05/30 12:19:44;;;;;;;8.52;7.93;;;32.50;72.80;;;;;;5045957;28;20641;-65
2021/05/30 12:22:18;;;;;;;9.98;9.20;;;31.50;68.70;;;;;;5047994;28;20179;-66
2021/05/30 12:24:44;;;;;;;6.30;5.88;;;31.00;70.50;;;;;;5036791;28;20203;-66
2021/05/30 12:27:11;;;;;;;7.78;7.22;;;30.40;71.10;;;;;;5039106;28;20191;-67
2021/05/30 12:29:37;;;;;;;7.05;6.53;;;30.10;71.80;;;;;;5031415;28;20542;-65
2021/05/30 12:32:03;;;;;;;7.47;6.88;;;29.20;69.80;;;;;;5032241;28;20175;-67
2021/05/30 12:34:35;;;;;;;7.10;6.60;;;28.80;69.40;;;;;;5031016;28;20210;-68
2021/05/30 12:37:01;;;;;;;6.65;6.25;;;28.70;71.60;;;;;;5031839;28;20237;-65
2021/05/30 12:39:28;;;;;;;7.13;6.63;;;28.50;71.90;;;;;;5039042;28;20704;-66
2021/05/30 12:42:05;;;;;;;7.82;7.28;;;28.40;74.90;;;;;;5049352;28;20660;-66